createdAt,value
2023-02-24T00:03:36.876Z,9.75
2023-02-24T00:08:33.686Z,10.04
2023-02-24T00:13:30.996Z,9.55
2023-02-24T00:18:27.857Z,9.57
2023-02-24T00:23:25.433Z,10.05
2023-02-24T00:28:22.194Z,9.82
2023-02-24T00:33:22.930Z,9.80
2023-02-24T00:38:19.975Z,9.86
2023-02-24T00:43:17.617Z,9.56
2023-02-24T00:48:15.276Z,9.44
2023-02-24T00:53:12.191Z,9.08
2023-02-24T00:58:09.251Z,9.19
2023-02-24T01:03:07.225Z,9.36
2023-02-24T01:08:04.485Z,9.46
2023-02-24T01:13:02.003Z,9.12
2023-02-24T01:17:58.846Z,8.74
2023-02-24T01:22:57.337Z,8.92
2023-02-24T01:27:54.477Z,8.79
2023-02-24T01:32:51.503Z,8.69
2023-02-24T01:37:48.770Z,8.34
2023-02-24T01:42:48.823Z,8.43
2023-02-24T01:47:47.317Z,8.32
2023-02-24T01:52:47.695Z,8.16
2023-02-24T01:57:45.613Z,8.10
2023-02-24T02:02:50.883Z,8.28
2023-02-24T02:07:50.111Z,8.34
2023-02-24T02:12:47.629Z,8.30
2023-02-24T02:17:59.375Z,8.48
2023-02-24T02:23:18.020Z,8.59
2023-02-24T02:28:53.720Z,8.56
2023-02-24T02:34:11.985Z,8.44
2023-02-24T02:39:16.432Z,8.44
2023-02-24T02:44:19.939Z,8.60
2023-02-24T02:49:23.519Z,8.09
2023-02-24T02:54:27.402Z,8.64
2023-02-24T02:59:27.689Z,8.61
2023-02-24T03:04:26.496Z,8.48
2023-02-24T03:09:28.855Z,8.63
2023-02-24T03:14:29.270Z,8.78
2023-02-24T03:19:36.703Z,8.45
2023-02-24T03:24:38.240Z,8.76
2023-02-24T03:29:44.326Z,8.61
2023-02-24T03:34:50.643Z,9.14
2023-02-24T03:39:50.730Z,8.97
2023-02-24T03:44:51.757Z,8.59
2023-02-24T03:49:50.108Z,8.80
2023-02-24T03:55:08.949Z,8.43
2023-02-24T04:00:21.853Z,7.87
2023-02-24T04:05:26.940Z,8.27
2023-02-24T04:10:34.014Z,8.21
2023-02-24T04:15:39.744Z,8.20
2023-02-24T04:20:40.442Z,7.79
2023-02-24T04:25:42.999Z,8.21
2023-02-24T04:30:42.194Z,8.29
2023-02-24T04:35:41.086Z,8.24
2023-02-24T04:40:40.286Z,8.12
2023-02-24T04:45:39.483Z,7.68
2023-02-24T04:50:37.779Z,8.45
2023-02-24T04:55:39.457Z,8.02
2023-02-24T05:00:39.738Z,8.54
2023-02-24T05:05:36.801Z,8.50
2023-02-24T05:10:39.823Z,8.66
2023-02-24T05:15:41.402Z,8.65
2023-02-24T05:21:01.644Z,8.51
2023-02-24T05:26:00.050Z,8.70
2023-02-24T05:31:05.382Z,8.71
2023-02-24T05:36:05.699Z,8.38
2023-02-24T05:41:07.010Z,9.22
2023-02-24T05:46:04.379Z,9.03
2023-02-24T05:51:04.285Z,9.16
2023-02-24T05:56:05.027Z,9.64
2023-02-24T06:01:15.648Z,9.55
2023-02-24T06:06:12.874Z,9.98
2023-02-24T06:11:10.158Z,10.15
2023-02-24T06:16:12.165Z,10.33
2023-02-24T06:21:11.892Z,10.22
2023-02-24T06:26:12.434Z,10.53
2023-02-24T06:31:10.419Z,10.52
2023-02-24T06:36:08.271Z,10.69
2023-02-24T06:41:10.249Z,10.75
2023-02-24T06:46:11.934Z,10.78
2023-02-24T06:51:19.923Z,10.22
2023-02-24T06:56:19.297Z,10.78
2023-02-24T07:01:19.926Z,10.97
2023-02-24T07:06:23.856Z,11.09
2023-02-24T07:11:21.503Z,11.22
2023-02-24T07:16:24.525Z,11.09
2023-02-24T07:21:23.289Z,11.51
2023-02-24T07:26:22.586Z,11.71
2023-02-24T07:31:22.297Z,11.85
2023-02-24T07:36:22.551Z,11.95
2023-02-24T07:41:22.311Z,11.80
2023-02-24T07:46:23.888Z,12.15
2023-02-24T07:51:36.428Z,12.36
2023-02-24T07:56:33.488Z,12.58
2023-02-24T08:01:50.322Z,12.73
2023-02-24T08:06:50.808Z,12.99
2023-02-24T08:11:51.641Z,13.28
2023-02-24T08:16:51.397Z,13.47
2023-02-24T08:21:50.151Z,13.42
2023-02-24T08:27:03.688Z,13.78
2023-02-24T08:32:01.573Z,13.81
2023-02-24T08:36:58.789Z,13.92
2023-02-24T08:41:56.864Z,13.93
2023-02-24T08:46:54.562Z,14.14
2023-02-24T08:51:53.022Z,14.58
2023-02-24T08:56:55.225Z,14.76
2023-02-24T09:02:10.158Z,14.79
2023-02-24T09:07:14.776Z,14.42
2023-02-24T09:12:21.165Z,14.67
2023-02-24T09:17:20.485Z,14.43
2023-02-24T09:22:30.837Z,14.39
2023-02-24T09:27:28.670Z,14.31
2023-02-24T09:32:34.696Z,14.11
2023-02-24T09:37:45.474Z,14.04
2023-02-24T09:42:57.701Z,14.02
2023-02-24T09:47:57.848Z,13.00
2023-02-24T09:53:16.206Z,13.08
2023-02-24T09:58:29.387Z,13.08
2023-02-24T10:03:47.343Z,12.47
2023-02-24T10:08:51.567Z,12.64
2023-02-24T10:14:03.423Z,12.50
2023-02-24T10:19:14.474Z,12.21
2023-02-24T10:24:22.377Z,11.98
2023-02-24T10:29:35.424Z,11.89
2023-02-24T10:34:33.607Z,12.19
2023-02-24T10:39:32.795Z,12.37
2023-02-24T10:44:35.464Z,12.10
2023-02-24T10:49:42.409Z,12.29
2023-02-24T10:55:04.442Z,12.11
2023-02-24T11:00:19.650Z,12.35
2023-02-24T11:05:37.393Z,12.39
2023-02-24T11:10:52.395Z,12.51
2023-02-24T11:16:12.466Z,12.72
2023-02-24T11:21:12.386Z,12.83
2023-02-24T11:26:16.511Z,12.80
2023-02-24T11:31:28.021Z,12.75
2023-02-24T11:36:33.332Z,13.20
2023-02-24T11:41:36.317Z,13.33
2023-02-24T11:46:41.120Z,13.97
2023-02-24T11:51:38.394Z,13.99
2023-02-24T11:56:41.664Z,14.35
2023-02-24T12:01:43.800Z,14.44
2023-02-24T12:06:52.990Z,14.42
2023-02-24T12:11:56.866Z,14.59
2023-02-24T12:17:03.325Z,14.45
2023-02-24T12:22:14.334Z,15.03
2023-02-24T12:27:25.967Z,15.08
2023-02-24T12:32:36.282Z,14.68
2023-02-24T12:37:54.023Z,14.86
2023-02-24T12:43:03.734Z,15.17
2023-02-24T12:48:11.806Z,15.28
2023-02-24T12:53:18.216Z,15.14
2023-02-24T12:58:21.794Z,15.32
2023-02-24T13:03:35.611Z,15.31
2023-02-24T13:08:44.705Z,14.62
2023-02-24T13:13:50.099Z,15.11
2023-02-24T13:18:46.761Z,15.21
2023-02-24T13:23:53.301Z,15.09
2023-02-24T13:28:59.728Z,14.97
2023-02-24T13:33:56.710Z,15.20
2023-02-24T13:39:08.146Z,15.20
2023-02-24T13:44:26.662Z,15.12
2023-02-24T13:49:32.622Z,14.93
2023-02-24T13:54:53.102Z,14.74
2023-02-24T14:00:09.573Z,14.52
2023-02-24T14:05:13.552Z,14.38
2023-02-24T14:10:18.499Z,14.53
2023-02-24T14:15:20.502Z,14.38
2023-02-24T14:20:23.284Z,14.29
2023-02-24T14:25:22.750Z,14.09
2023-02-24T14:30:28.095Z,13.77
2023-02-24T14:35:33.555Z,13.45
2023-02-24T14:40:30.419Z,13.56
2023-02-24T14:45:30.233Z,13.22
2023-02-24T14:50:30.663Z,13.08
2023-02-24T14:55:31.427Z,12.94
2023-02-24T15:00:34.647Z,12.40
2023-02-24T15:05:32.124Z,13.04
2023-02-24T15:10:31.300Z,12.83
2023-02-24T15:15:34.603Z,12.65
2023-02-24T15:20:35.614Z,12.76
2023-02-24T15:25:43.260Z,12.64
2023-02-24T15:30:58.273Z,12.42
2023-02-24T15:35:58.876Z,12.28
2023-02-24T15:40:59.044Z,12.28
2023-02-24T15:45:56.815Z,11.84
2023-02-24T15:50:54.717Z,12.01
2023-02-24T15:55:53.857Z,11.99
2023-02-24T16:01:00.438Z,12.08
2023-02-24T16:05:58.740Z,12.00
2023-02-24T16:10:55.839Z,11.83
2023-02-24T16:15:53.823Z,11.82
2023-02-24T16:20:53.742Z,12.10
2023-02-24T16:25:56.461Z,11.96
2023-02-24T16:30:54.128Z,12.06
2023-02-24T16:35:52.851Z,12.04
2023-02-24T16:40:50.402Z,12.09
2023-02-24T16:45:47.601Z,11.77
2023-02-24T16:50:44.729Z,11.67
2023-02-24T16:55:43.028Z,11.90
2023-02-24T17:00:41.634Z,11.77
2023-02-24T17:05:38.615Z,11.20
2023-02-24T17:10:38.543Z,11.38
2023-02-24T17:15:36.096Z,11.22
2023-02-24T17:20:34.077Z,11.03
2023-02-24T17:25:31.977Z,11.11
2023-02-24T17:30:32.716Z,11.23
2023-02-24T17:35:30.651Z,11.24
2023-02-24T17:40:27.990Z,11.22
2023-02-24T17:45:25.276Z,10.77
2023-02-24T17:50:22.288Z,10.91
2023-02-24T17:55:21.779Z,10.47
2023-02-24T18:00:18.911Z,10.44
2023-02-24T18:05:15.996Z,10.63
2023-02-24T18:10:13.258Z,10.31
2023-02-24T18:15:11.770Z,10.23
2023-02-24T18:20:11.692Z,10.50
2023-02-24T18:25:10.399Z,10.10
2023-02-24T18:30:09.573Z,9.95
2023-02-24T18:35:08.709Z,9.77
2023-02-24T18:40:07.300Z,9.67
2023-02-24T18:45:04.945Z,9.50
2023-02-24T18:50:01.976Z,9.80
2023-02-24T18:54:59.580Z,9.75
2023-02-24T18:59:56.672Z,9.48
2023-02-24T19:04:54.751Z,9.81
2023-02-24T19:10:01.394Z,9.73
2023-02-24T19:14:58.251Z,9.69
2023-02-24T19:19:55.074Z,9.47
2023-02-24T19:24:51.860Z,9.36
2023-02-24T19:29:49.841Z,9.14
2023-02-24T19:34:47.725Z,9.47
2023-02-24T19:39:44.768Z,9.07
2023-02-24T19:44:41.651Z,9.21
2023-02-24T19:49:42.136Z,9.19
2023-02-24T19:54:39.213Z,8.55
2023-02-24T19:59:36.150Z,9.13
2023-02-24T20:04:33.727Z,8.94
2023-02-24T20:09:32.234Z,8.90
2023-02-24T20:14:32.613Z,8.36
2023-02-24T20:19:33.784Z,8.62
2023-02-24T20:24:34.705Z,9.02
2023-02-24T20:29:35.274Z,8.77
2023-02-24T20:34:41.253Z,8.27
2023-02-24T20:39:39.308Z,8.72
2023-02-24T20:44:36.242Z,8.32
2023-02-24T20:49:33.336Z,8.58
2023-02-24T20:54:30.404Z,8.81
2023-02-24T20:59:28.045Z,8.59
2023-02-24T21:04:24.972Z,7.99
2023-02-24T21:09:21.974Z,8.39
2023-02-24T21:14:19.651Z,8.49
2023-02-24T21:19:19.655Z,8.34
2023-02-24T21:24:17.482Z,8.67
2023-02-24T21:29:14.425Z,8.53
2023-02-24T21:34:11.494Z,8.60
2023-02-24T21:39:13.865Z,8.24
2023-02-24T21:44:11.989Z,8.61
2023-02-24T21:49:13.706Z,8.37
2023-02-24T21:54:12.166Z,8.63
2023-02-24T21:59:10.603Z,8.58
2023-02-24T22:04:09.996Z,7.97
2023-02-24T22:09:08.718Z,7.87
2023-02-24T22:14:08.248Z,7.96
2023-02-24T22:19:06.055Z,8.08
2023-02-24T22:24:03.836Z,8.27
2023-02-24T22:29:01.662Z,7.99
2023-02-24T22:34:00.251Z,8.25
2023-02-24T22:38:59.350Z,7.98
2023-02-24T22:43:56.673Z,7.37
2023-02-24T22:48:53.837Z,7.93
2023-02-24T22:53:52.233Z,7.57
2023-02-24T22:58:49.405Z,7.94
2023-02-24T23:03:46.383Z,7.77
2023-02-24T23:08:46.162Z,8.12
2023-02-24T23:13:47.290Z,7.84
2023-02-24T23:18:47.946Z,8.10
2023-02-24T23:23:46.239Z,8.20
2023-02-24T23:28:44.276Z,8.06
2023-02-24T23:33:43.398Z,7.79
2023-02-24T23:38:40.500Z,7.60
2023-02-24T23:43:38.268Z,7.31
2023-02-24T23:48:36.546Z,7.52
2023-02-24T23:53:37.077Z,7.46
2023-02-24T23:58:34.106Z,7.19
